createdAt,value
2022-09-01T00:02:40.834Z,92099.97
2022-09-01T00:05:28.495Z,92096.59
2022-09-01T00:08:18.488Z,92100.38
2022-09-01T00:11:06.395Z,92086.75
2022-09-01T00:13:54.034Z,92087.50
2022-09-01T00:16:41.638Z,92083.72
2022-09-01T00:19:29.264Z,92088.66
2022-09-01T00:22:16.852Z,92087.47
2022-09-01T00:25:04.474Z,92079.56
2022-09-01T00:27:52.083Z,92079.97
2022-09-01T00:30:39.739Z,92080.72
2022-09-01T00:33:27.383Z,92083.34
2022-09-01T00:36:15.007Z,92081.88
2022-09-01T00:39:02.608Z,92080.38
2022-09-01T00:41:50.225Z,92083.38
2022-09-01T00:44:37.818Z,92080.34
2022-09-01T00:47:26.952Z,92090.19
2022-09-01T00:50:14.552Z,92083.00
2022-09-01T00:53:02.185Z,92092.44
2022-09-01T00:55:49.779Z,92092.44
2022-09-01T00:58:37.396Z,92084.13
2022-09-01T01:01:25.030Z,92089.41
2022-09-01T01:04:12.688Z,92081.13
2022-09-01T01:07:00.276Z,92077.69
2022-09-01T01:09:47.900Z,92079.59
2022-09-01T01:12:35.487Z,92072.78
2022-09-01T01:15:23.128Z,92076.97
2022-09-01T01:18:10.734Z,92079.97
2022-09-01T01:20:58.466Z,92085.66
2022-09-01T01:23:46.068Z,92086.00
2022-09-01T01:26:33.675Z,92075.06
2022-09-01T01:29:21.277Z,92087.16
2022-09-01T01:32:08.908Z,92078.84
2022-09-01T01:34:56.499Z,92079.22
2022-09-01T01:37:44.116Z,92080.72
2022-09-01T01:40:31.833Z,92086.78
2022-09-01T01:43:19.496Z,92086.03
2022-09-01T01:46:07.249Z,92093.19
2022-09-01T01:48:54.895Z,92089.06
2022-09-01T01:51:42.508Z,92096.59
2022-09-01T01:54:30.126Z,92087.91
2022-09-01T01:57:17.727Z,92087.53
2022-09-01T02:00:05.338Z,92098.88
2022-09-01T02:02:53.053Z,92099.63
2022-09-01T02:05:40.693Z,92094.72
2022-09-01T02:08:28.320Z,92098.13
2022-09-01T02:11:15.915Z,92093.97
2022-09-01T02:14:03.540Z,92097.72
2022-09-01T02:16:51.229Z,92098.84
2022-09-01T02:19:38.954Z,92092.06
2022-09-01T02:22:26.540Z,92092.44
2022-09-01T02:25:14.163Z,92092.03
2022-09-01T02:28:01.792Z,92099.97
2022-09-01T02:30:49.455Z,92090.53
2022-09-01T02:33:37.437Z,92092.44
2022-09-01T02:36:25.047Z,92091.31
2022-09-01T02:39:12.681Z,92092.03
2022-09-01T02:42:00.294Z,92088.63
2022-09-01T02:44:47.917Z,92099.22
2022-09-01T02:47:35.514Z,92092.81
2022-09-01T02:50:25.225Z,92098.84
2022-09-01T02:53:14.839Z,92103.41
2022-09-01T02:56:02.470Z,92098.88
2022-09-01T02:58:50.107Z,92093.19
2022-09-01T03:01:37.764Z,92088.66
2022-09-01T03:04:25.453Z,92094.34
2022-09-01T03:07:13.120Z,92098.47
2022-09-01T03:10:00.705Z,92094.34
2022-09-01T03:12:48.333Z,92100.03
2022-09-01T03:15:35.976Z,92089.06
2022-09-01T03:18:23.591Z,92095.84
2022-09-01T03:21:11.183Z,92097.38
2022-09-01T03:23:58.891Z,92102.28
2022-09-01T03:26:49.792Z,92094.34
2022-09-01T03:29:38.052Z,92088.66
2022-09-01T03:32:25.639Z,92087.56
2022-09-01T03:35:13.251Z,92088.66
2022-09-01T03:38:00.866Z,92095.47
2022-09-01T03:40:48.563Z,92093.56
2022-09-01T03:43:36.513Z,92086.78
2022-09-01T03:46:24.294Z,92090.91
2022-09-01T03:49:11.895Z,92081.81
2022-09-01T03:51:59.504Z,92079.19
2022-09-01T03:54:47.084Z,92082.22
2022-09-01T03:57:34.723Z,92078.47
2022-09-01T04:00:22.329Z,92086.78
2022-09-01T04:03:10.111Z,92089.38
2022-09-01T04:05:57.686Z,92091.69
2022-09-01T04:08:45.311Z,92088.31
2022-09-01T04:11:32.945Z,92081.88
2022-09-01T04:14:20.566Z,92091.31
2022-09-01T04:17:08.197Z,92093.97
2022-09-01T04:19:55.801Z,92091.31
2022-09-01T04:22:43.626Z,92090.56
2022-09-01T04:25:31.246Z,92093.94
2022-09-01T04:28:18.973Z,92100.38
2022-09-01T04:31:06.622Z,92096.97
2022-09-01T04:33:54.224Z,92092.44
2022-09-01T04:36:41.837Z,92098.50
2022-09-01T04:39:29.441Z,92089.41
2022-09-01T04:42:17.083Z,92090.56
2022-09-01T04:45:10.181Z,92092.06
2022-09-01T04:47:58.598Z,92084.50
2022-09-01T04:50:46.205Z,92095.09
2022-09-01T04:53:33.832Z,92089.06
2022-09-01T04:56:21.446Z,92086.41
2022-09-01T04:59:09.064Z,92083.72
2022-09-01T05:01:56.734Z,92095.41
2022-09-01T05:04:44.438Z,92088.97
2022-09-01T05:07:32.052Z,92094.28
2022-09-01T05:10:19.682Z,92088.22
2022-09-01T05:13:07.282Z,92099.56
2022-09-01T05:15:54.942Z,92098.81
2022-09-01T05:18:42.562Z,92097.97
2022-09-01T05:21:30.222Z,92105.16
2022-09-01T05:24:17.927Z,92106.69
2022-09-01T05:27:05.567Z,92110.28
2022-09-01T05:29:53.195Z,92100.09
2022-09-01T05:32:40.833Z,92103.09
2022-09-01T05:35:32.556Z,92106.84
2022-09-01T05:38:20.821Z,92107.84
2022-09-01T05:41:08.551Z,92106.75
2022-09-01T05:44:00.383Z,92110.31
2022-09-01T05:46:48.595Z,92113.13
2022-09-01T05:49:36.266Z,92116.97
2022-09-01T05:52:23.897Z,92111.63
2022-09-01T05:55:11.519Z,92108.69
2022-09-01T05:57:59.179Z,92114.69
2022-09-01T06:00:46.813Z,92117.34
2022-09-01T06:03:38.049Z,92108.69
2022-09-01T06:06:26.204Z,92120.91
2022-09-01T06:09:13.816Z,92110.94
2022-09-01T06:12:01.440Z,92114.63
2022-09-01T06:14:49.053Z,92113.81
2022-09-01T06:17:36.791Z,92112.91
2022-09-01T06:20:24.622Z,92122.41
2022-09-01T06:23:12.304Z,92120.28
2022-09-01T06:25:59.911Z,92114.38
2022-09-01T06:28:47.532Z,92122.63
2022-09-01T06:31:35.239Z,92122.44
2022-09-01T06:34:22.929Z,92126.56
2022-09-01T06:37:10.572Z,92127.44
2022-09-01T06:39:58.304Z,92128.94
2022-09-01T06:42:45.920Z,92130.47
2022-09-01T06:45:33.576Z,92122.50
2022-09-01T06:48:21.281Z,92124.25
2022-09-01T06:51:18.506Z,92126.41
2022-09-01T06:54:12.369Z,92134.75
2022-09-01T06:58:03.393Z,92136.53
2022-09-01T07:00:09.805Z,92133.50
2022-09-01T07:02:57.499Z,92137.97
2022-09-01T07:12:08.810Z,92141.34
2022-09-01T07:18:15.531Z,92139.28
2022-09-01T07:21:07.579Z,92145.69
2022-09-01T07:24:11.528Z,92147.19
2022-09-01T07:27:07.844Z,92149.88
2022-09-01T07:29:55.621Z,92149.44
2022-09-01T07:32:44.283Z,92155.03
2022-09-01T07:35:35.356Z,92148.75
2022-09-01T07:44:38.188Z,92150.63
2022-09-01T07:51:34.613Z,92149.31
2022-09-01T07:53:41.013Z,92143.41
2022-09-01T07:56:28.639Z,92145.91
2022-09-01T07:59:16.283Z,92151.25
2022-09-01T08:02:03.987Z,92155.13
2022-09-01T08:04:51.649Z,92149.09
2022-09-01T08:07:51.756Z,92153.13
2022-09-01T08:10:39.562Z,92155.91
2022-09-01T08:13:27.214Z,92156.53
2022-09-01T08:16:18.174Z,92148.28
2022-09-01T08:19:16.369Z,92156.97
2022-09-01T08:22:04.411Z,92155.03
2022-09-01T08:24:52.054Z,92159.84
2022-09-01T08:27:39.709Z,92158.69
2022-09-01T08:30:27.331Z,92158.56
2022-09-01T08:33:15.474Z,92154.63
2022-09-01T08:36:03.632Z,92161.03
2022-09-01T08:38:51.424Z,92158.97
2022-09-01T08:41:39.139Z,92161.88
2022-09-01T08:44:26.864Z,92159.72
2022-09-01T08:47:15.560Z,92157.41
2022-09-01T08:50:06.179Z,92151.78
2022-09-01T08:52:54.049Z,92156.66
2022-09-01T08:55:41.776Z,92151.63
2022-09-01T08:58:29.442Z,92157.81
2022-09-01T09:01:17.779Z,92156.53
2022-09-01T09:04:05.501Z,92165.13
2022-09-01T09:06:53.134Z,92163.53
2022-09-01T09:09:40.783Z,92160.28
2022-09-01T09:12:28.629Z,92164.66
2022-09-01T09:15:16.366Z,92159.56
2022-09-01T09:18:03.983Z,92160.34
2022-09-01T09:20:54.593Z,92158.66
2022-09-01T09:23:42.214Z,92167.19
2022-09-01T09:26:42.211Z,92155.75
2022-09-01T09:29:30.228Z,92155.53
2022-09-01T09:32:39.338Z,92157.88
2022-09-01T09:35:25.455Z,92158.09
2022-09-01T09:38:13.080Z,92166.50
2022-09-01T09:41:18.729Z,92166.09
2022-09-01T09:44:11.068Z,92164.59
2022-09-01T09:46:59.009Z,92162.47
2022-09-01T09:49:48.826Z,92163.19
2022-09-01T09:52:36.682Z,92156.56
2022-09-01T09:55:24.335Z,92162.28
2022-09-01T09:58:11.940Z,92157.91
2022-09-01T10:00:59.611Z,92162.84
2022-09-01T10:03:47.645Z,92157.28
2022-09-01T10:06:36.284Z,92161.56
2022-09-01T10:09:23.937Z,92169.50
2022-09-01T10:12:11.553Z,92168.41
2022-09-01T10:15:00.582Z,92164.91
2022-09-01T10:18:13.590Z,92156.31
2022-09-01T10:20:59.826Z,92155.03
2022-09-01T10:23:48.246Z,92151.53
2022-09-01T10:26:35.856Z,92153.84
2022-09-01T10:29:24.352Z,92145.56
2022-09-01T10:32:31.324Z,92151.88
2022-09-01T10:35:19.558Z,92145.34
2022-09-01T10:38:08.316Z,92145.78
2022-09-01T10:40:59.729Z,92156.09
2022-09-01T10:43:47.571Z,92153.44
2022-09-01T10:46:40.780Z,92150.34
2022-09-01T10:49:29.611Z,92153.25
2022-09-01T10:52:17.421Z,92156.31
2022-09-01T10:55:05.023Z,92147.81
2022-09-01T10:57:52.647Z,92152.91
2022-09-01T11:00:40.457Z,92146.59
2022-09-01T11:03:30.450Z,92148.00
2022-09-01T11:06:19.281Z,92150.00
2022-09-01T11:09:06.925Z,92149.47
2022-09-01T11:11:54.571Z,92142.94
2022-09-01T11:14:42.193Z,92149.47
2022-09-01T11:17:29.865Z,92144.47
2022-09-01T11:20:18.115Z,92128.19
2022-09-01T11:23:05.851Z,92142.34
2022-09-01T11:29:03.390Z,92136.44
2022-09-01T11:31:51.289Z,92138.44
2022-09-01T11:34:38.914Z,92135.31
2022-09-01T11:37:27.798Z,92137.91
2022-09-01T11:40:15.632Z,92130.13
2022-09-01T11:43:03.246Z,92130.06
2022-09-01T11:45:53.000Z,92129.09
2022-09-01T11:48:40.680Z,92129.34
2022-09-01T11:51:28.292Z,92120.50
2022-09-01T11:54:15.899Z,92131.72
2022-09-01T11:57:03.527Z,92125.88
2022-09-01T11:59:51.133Z,92128.91
2022-09-01T12:02:38.853Z,92111.84
2022-09-01T12:05:26.540Z,92116.75
2022-09-01T12:08:14.175Z,92123.81
2022-09-01T12:11:01.766Z,92114.09
2022-09-01T12:13:49.386Z,92109.75
2022-09-01T12:16:37.245Z,92104.25
2022-09-01T12:19:24.940Z,92104.59
2022-09-01T12:22:12.592Z,92098.91
2022-09-01T12:25:02.218Z,92107.44
2022-09-01T12:27:49.831Z,92103.63
2022-09-01T12:30:37.433Z,92100.34
2022-09-01T12:33:25.111Z,92099.78
2022-09-01T12:36:12.753Z,92097.81
2022-09-01T12:39:00.364Z,92087.09
2022-09-01T12:41:48.565Z,92090.00
2022-09-01T12:44:36.315Z,92087.22
2022-09-01T12:47:23.931Z,92095.75
2022-09-01T12:50:11.579Z,92090.75
2022-09-01T12:53:01.168Z,92092.44
2022-09-01T12:55:48.887Z,92085.72
2022-09-01T12:58:36.489Z,92084.47
2022-09-01T13:01:24.224Z,92082.19
2022-09-01T13:04:11.949Z,92086.50
2022-09-01T13:06:59.569Z,92086.28
2022-09-01T13:09:47.155Z,92081.66
2022-09-01T13:12:34.787Z,92079.72
2022-09-01T13:15:22.392Z,92088.41
2022-09-01T13:18:12.003Z,92075.72
2022-09-01T13:20:59.634Z,92086.34
2022-09-01T13:23:47.235Z,92093.63
2022-09-01T13:26:34.819Z,92088.22
2022-09-01T13:29:22.539Z,92091.03
2022-09-01T13:32:20.951Z,92086.75
2022-09-01T13:35:09.519Z,92081.91
2022-09-01T13:37:57.087Z,92078.44
2022-09-01T13:40:44.775Z,92074.41
2022-09-01T13:43:32.436Z,92077.66
2022-09-01T13:46:20.054Z,92074.81
2022-09-01T13:49:42.115Z,92082.66
2022-09-01T13:52:17.198Z,92076.38
2022-09-01T13:55:04.769Z,92075.66
2022-09-01T13:57:55.616Z,92063.25
2022-09-01T14:00:43.598Z,92072.09
2022-09-01T14:03:31.282Z,92065.88
2022-09-01T14:06:18.877Z,92060.47
2022-09-01T14:09:06.443Z,92073.94
2022-09-01T14:11:54.069Z,92063.59
2022-09-01T14:17:49.241Z,92065.13
2022-09-01T14:20:37.241Z,92058.84
2022-09-01T14:23:24.901Z,92061.00
2022-09-01T14:26:12.526Z,92059.63
2022-09-01T14:29:00.154Z,92055.00
2022-09-01T14:31:47.754Z,92062.91
2022-09-01T14:34:35.372Z,92054.19
2022-09-01T14:37:22.965Z,92044.75
2022-09-01T14:40:10.633Z,92044.41
2022-09-01T14:43:04.078Z,92038.41
2022-09-01T14:45:51.691Z,92047.06
2022-09-01T14:48:39.299Z,92040.63
2022-09-01T14:52:09.750Z,92046.53
2022-09-01T14:54:34.461Z,92039.81
2022-09-01T14:57:36.381Z,92040.59
2022-09-01T15:00:25.114Z,92042.69
2022-09-01T15:03:12.882Z,92039.25
2022-09-01T15:06:00.531Z,92038.88
2022-09-01T15:08:50.141Z,92038.47
2022-09-01T15:11:39.709Z,92039.34
2022-09-01T15:14:31.860Z,92025.41
2022-09-01T15:17:19.451Z,92028.06
2022-09-01T15:20:07.085Z,92032.34
2022-09-01T15:22:54.690Z,92021.69
2022-09-01T15:25:42.265Z,92029.09
2022-09-01T15:28:29.848Z,92024.16
2022-09-01T15:31:17.470Z,92026.28
2022-09-01T15:34:05.091Z,92016.84
2022-09-01T15:36:52.679Z,92016.19
2022-09-01T15:39:40.405Z,92012.09
2022-09-01T15:42:28.002Z,92018.16
2022-09-01T15:45:15.711Z,92023.22
2022-09-01T15:48:03.321Z,92015.91
2022-09-01T15:50:50.922Z,92014.97
2022-09-01T15:53:38.503Z,92014.91
2022-09-01T15:56:26.111Z,92020.13
2022-09-01T15:59:14.107Z,92016.16
2022-09-01T16:02:03.892Z,92019.06
2022-09-01T16:04:51.544Z,92021.31
2022-09-01T16:07:39.132Z,92019.38
2022-09-01T16:10:26.739Z,92032.00
2022-09-01T16:13:14.348Z,92036.44
2022-09-01T16:16:01.977Z,92036.59
2022-09-01T16:18:49.692Z,92035.78
2022-09-01T16:21:37.305Z,92028.75
2022-09-01T16:24:24.881Z,92033.59
2022-09-01T16:27:14.825Z,92035.50
2022-09-01T16:30:02.460Z,92029.06
2022-09-01T16:32:50.073Z,92035.81
2022-09-01T16:35:37.666Z,92033.50
2022-09-01T16:38:25.523Z,92031.13
2022-09-01T16:41:13.128Z,92030.31
2022-09-01T16:44:01.815Z,92031.66
2022-09-01T16:46:49.475Z,92023.00
2022-09-01T16:49:37.082Z,92021.22
2022-09-01T16:52:24.703Z,92024.69
2022-09-01T16:55:12.284Z,92018.97
2022-09-01T16:57:59.939Z,92022.97
2022-09-01T17:00:47.610Z,92025.75
2022-09-01T17:03:42.678Z,92025.09
2022-09-01T17:06:30.596Z,92028.69
2022-09-01T17:09:18.308Z,92023.72
2022-09-01T17:12:05.921Z,92017.94
2022-09-01T17:14:53.536Z,92032.66
2022-09-01T17:17:41.138Z,92022.94
2022-09-01T17:20:28.755Z,92023.53
2022-09-01T17:23:21.045Z,92023.84
2022-09-01T17:26:16.288Z,92021.09
2022-09-01T17:29:03.868Z,92020.97
2022-09-01T17:31:51.482Z,92020.47
2022-09-01T17:34:39.070Z,92020.97
2022-09-01T17:37:29.146Z,92025.72
2022-09-01T17:40:16.885Z,92030.34
2022-09-01T17:43:04.513Z,92023.66
2022-09-01T17:45:53.173Z,92025.81
2022-09-01T17:48:40.789Z,92028.09
2022-09-01T17:51:28.370Z,92030.06
2022-09-01T17:54:15.991Z,92030.47
2022-09-01T17:57:04.937Z,92024.25
2022-09-01T17:59:54.954Z,92028.13
2022-09-01T18:02:42.561Z,92036.47
2022-09-01T18:05:30.204Z,92035.72
2022-09-01T18:08:17.861Z,92042.53
2022-09-01T18:11:05.567Z,92038.75
2022-09-01T18:13:54.028Z,92040.84
2022-09-01T18:16:41.818Z,92043.78
2022-09-01T18:19:29.405Z,92042.41
2022-09-01T18:22:17.018Z,92039.53
2022-09-01T18:25:07.360Z,92042.28
2022-09-01T18:27:54.970Z,92046.47
2022-09-01T18:30:52.755Z,92043.66
2022-09-01T18:33:40.598Z,92041.06
2022-09-01T18:36:28.316Z,92041.00
2022-09-01T18:39:15.907Z,92045.22
2022-09-01T18:42:03.500Z,92044.84
2022-09-01T18:44:51.365Z,92057.44
2022-09-01T18:47:38.980Z,92048.88
2022-09-01T18:50:26.614Z,92049.34
2022-09-01T18:53:14.283Z,92048.72
2022-09-01T18:56:01.883Z,92057.16
2022-09-01T18:58:49.502Z,92052.75
2022-09-01T19:01:37.391Z,92061.59
2022-09-01T19:04:25.051Z,92051.75
2022-09-01T19:07:15.273Z,92064.81
2022-09-01T19:10:02.855Z,92068.50
2022-09-01T19:12:50.454Z,92075.19
2022-09-01T19:15:38.099Z,92063.25
2022-09-01T19:18:25.724Z,92065.91
2022-09-01T19:21:13.287Z,92062.00
2022-09-01T19:24:00.878Z,92059.63
2022-09-01T19:26:48.461Z,92059.59
2022-09-01T19:29:36.065Z,92059.97
2022-09-01T19:32:23.650Z,92053.66
2022-09-01T19:35:11.278Z,92060.38
2022-09-01T19:37:58.873Z,92057.00
2022-09-01T19:40:46.484Z,92054.91
2022-09-01T19:43:34.074Z,92057.91
2022-09-01T19:46:21.732Z,92059.53
2022-09-01T19:49:09.371Z,92059.97
2022-09-01T19:51:57.147Z,92055.72
2022-09-01T19:54:44.741Z,92053.59
2022-09-01T19:57:32.349Z,92045.94
2022-09-01T20:00:19.936Z,92044.56
2022-09-01T20:03:07.670Z,92045.34
2022-09-01T20:05:55.373Z,92039.72
2022-09-01T20:08:43.051Z,92039.94
2022-09-01T20:11:30.669Z,92049.03
2022-09-01T20:14:18.294Z,92042.88
2022-09-01T20:17:05.856Z,92035.03
2022-09-01T20:19:53.455Z,92037.41
2022-09-01T20:22:41.138Z,92041.13
2022-09-01T20:25:28.748Z,92039.72
2022-09-01T20:28:16.321Z,92036.97
2022-09-01T20:31:04.159Z,92032.13
2022-09-01T20:33:51.758Z,92024.16
2022-09-01T20:36:39.377Z,92031.03
2022-09-01T20:39:27.028Z,92034.09
2022-09-01T20:42:14.636Z,92035.56
2022-09-01T20:45:02.248Z,92037.53
2022-09-01T20:47:50.054Z,92035.56
2022-09-01T20:50:42.677Z,92046.13
2022-09-01T20:53:30.629Z,92036.44
2022-09-01T20:56:18.254Z,92038.94
2022-09-01T20:59:05.916Z,92043.81
2022-09-01T21:01:53.582Z,92046.00
2022-09-01T21:04:41.195Z,92038.13
2022-09-01T21:07:31.290Z,92038.81
2022-09-01T21:10:19.112Z,92039.44
2022-09-01T21:13:06.727Z,92047.09
2022-09-01T21:15:56.790Z,92055.38
2022-09-01T21:18:44.395Z,92045.78
2022-09-01T21:21:31.992Z,92053.09
2022-09-01T21:24:19.706Z,92047.38
2022-09-01T21:27:07.300Z,92047.38
2022-09-01T21:29:54.920Z,92044.69
2022-09-01T21:32:42.500Z,92050.47
2022-09-01T21:35:30.110Z,92036.34
2022-09-01T21:38:17.718Z,92041.09
2022-09-01T21:41:08.551Z,92042.34
2022-09-01T21:43:58.536Z,92046.75
2022-09-01T21:46:46.124Z,92044.84
2022-09-01T21:49:33.727Z,92039.91
2022-09-01T21:52:21.314Z,92041.06
2022-09-01T21:55:08.915Z,92035.63
2022-09-01T21:57:56.502Z,92036.53
2022-09-01T22:00:44.105Z,92032.75
2022-09-01T22:03:31.687Z,92032.16
2022-09-01T22:06:19.283Z,92036.72
2022-09-01T22:09:20.342Z,92041.72
2022-09-01T22:12:11.060Z,92033.00
2022-09-01T22:14:58.654Z,92032.16
2022-09-01T22:17:46.305Z,92027.81
2022-09-01T22:20:33.902Z,92025.28
2022-09-01T22:23:21.555Z,92022.97
2022-09-01T22:26:12.495Z,92020.50
2022-09-01T22:30:53.225Z,92031.00
2022-09-01T22:33:40.847Z,92029.69
2022-09-01T22:36:28.477Z,92028.69
2022-09-01T22:39:16.070Z,92037.19
2022-09-01T22:42:03.774Z,92027.88
2022-09-01T22:44:53.343Z,92025.53
2022-09-01T22:47:40.941Z,92029.13
2022-09-01T22:50:28.533Z,92033.75
2022-09-01T22:53:16.242Z,92033.28
2022-09-01T22:56:05.037Z,92028.03
2022-09-01T22:58:52.627Z,92032.72
2022-09-01T23:01:40.233Z,92027.75
2022-09-01T23:04:27.861Z,92027.38
2022-09-01T23:07:17.452Z,92026.69
2022-09-01T23:10:05.050Z,92027.44
2022-09-01T23:12:52.645Z,92027.75
2022-09-01T23:15:40.251Z,92026.53
2022-09-01T23:18:27.814Z,92028.75
2022-09-01T23:21:15.438Z,92029.25
2022-09-01T23:24:03.028Z,92028.19
2022-09-01T23:26:50.716Z,92022.84
2022-09-01T23:29:38.306Z,92028.34
2022-09-01T23:32:25.915Z,92025.34
2022-09-01T23:35:13.520Z,92022.13
2022-09-01T23:38:01.144Z,92019.78
2022-09-01T23:40:48.770Z,92022.44
2022-09-01T23:43:36.435Z,92019.66
2022-09-01T23:46:24.041Z,92019.94
2022-09-01T23:49:11.643Z,92013.13
2022-09-01T23:51:59.252Z,92009.38
2022-09-01T23:54:46.859Z,92017.16
2022-09-01T23:57:34.462Z,92009.84
